sensor_id;sensor_type;location;lat;lon;timestamp;P1;durP1;ratioP1;P2;durP2;ratioP2
36355;SDS011;22384;54.302;18.596;2023-03-01T00:02:20;9.18;;;4.55;;
36355;SDS011;22384;54.302;18.596;2023-03-01T00:04:46;10.07;;;4.88;;
36355;SDS011;22384;54.302;18.596;2023-03-01T00:07:12;14.25;;;4.97;;
36355;SDS011;22384;54.302;18.596;2023-03-01T00:09:38;11.35;;;4.30;;
36355;SDS011;22384;54.302;18.596;2023-03-01T00:12:05;9.27;;;4.60;;
36355;SDS011;22384;54.302;18.596;2023-03-01T00:14:33;11.32;;;4.30;;
36355;SDS011;22384;54.302;18.596;2023-03-01T00:17:00;12.32;;;4.78;;
36355;SDS011;22384;54.302;18.596;2023-03-01T00:19:27;12.73;;;4.72;;
36355;SDS011;22384;54.302;18.596;2023-03-01T00:21:55;12.90;;;5.38;;
36355;SDS011;22384;54.302;18.596;2023-03-01T00:24:21;13.27;;;4.90;;
36355;SDS011;22384;54.302;18.596;2023-03-01T00:26:47;19.92;;;4.80;;
36355;SDS011;22384;54.302;18.596;2023-03-01T00:29:14;11.68;;;4.68;;
36355;SDS011;22384;54.302;18.596;2023-03-01T00:31:42;13.70;;;4.53;;
36355;SDS011;22384;54.302;18.596;2023-03-01T00:34:08;13.20;;;4.07;;
36355;SDS011;22384;54.302;18.596;2023-03-01T00:36:35;8.52;;;3.63;;
36355;SDS011;22384;54.302;18.596;2023-03-01T00:39:02;13.75;;;4.95;;
36355;SDS011;22384;54.302;18.596;2023-03-01T00:41:30;10.77;;;4.78;;
36355;SDS011;22384;54.302;18.596;2023-03-01T00:43:57;10.90;;;5.10;;
36355;SDS011;22384;54.302;18.596;2023-03-01T00:46:25;13.88;;;4.45;;
36355;SDS011;22384;54.302;18.596;2023-03-01T00:48:52;11.35;;;4.63;;
36355;SDS011;22384;54.302;18.596;2023-03-01T00:51:23;11.80;;;4.45;;
36355;SDS011;22384;54.302;18.596;2023-03-01T00:53:54;13.05;;;3.97;;
36355;SDS011;22384;54.302;18.596;2023-03-01T00:56:22;14.57;;;5.03;;
36355;SDS011;22384;54.302;18.596;2023-03-01T00:58:49;12.07;;;5.63;;
36355;SDS011;22384;54.302;18.596;2023-03-01T01:01:19;11.57;;;4.78;;
36355;SDS011;22384;54.302;18.596;2023-03-01T01:03:56;13.70;;;5.20;;
36355;SDS011;22384;54.302;18.596;2023-03-01T01:09:13;13.38;;;5.15;;
36355;SDS011;22384;54.302;18.596;2023-03-01T01:11:45;9.98;;;4.47;;
36355;SDS011;22384;54.302;18.596;2023-03-01T01:14:13;12.43;;;5.05;;
36355;SDS011;22384;54.302;18.596;2023-03-01T01:16:39;12.50;;;5.00;;
36355;SDS011;22384;54.302;18.596;2023-03-01T01:19:06;11.32;;;5.28;;
36355;SDS011;22384;54.302;18.596;2023-03-01T01:21:33;11.15;;;5.13;;
36355;SDS011;22384;54.302;18.596;2023-03-01T01:24:00;15.95;;;5.40;;
36355;SDS011;22384;54.302;18.596;2023-03-01T01:26:28;13.60;;;5.43;;
36355;SDS011;22384;54.302;18.596;2023-03-01T01:28:54;16.70;;;6.10;;
36355;SDS011;22384;54.302;18.596;2023-03-01T01:31:22;13.05;;;5.60;;
36355;SDS011;22384;54.302;18.596;2023-03-01T01:33:50;16.45;;;6.00;;
36355;SDS011;22384;54.302;18.596;2023-03-01T01:36:17;13.80;;;5.70;;
36355;SDS011;22384;54.302;18.596;2023-03-01T01:38:45;13.40;;;5.95;;
36355;SDS011;22384;54.302;18.596;2023-03-01T01:41:12;15.32;;;6.20;;
36355;SDS011;22384;54.302;18.596;2023-03-01T01:43:50;11.23;;;6.07;;
36355;SDS011;22384;54.302;18.596;2023-03-01T01:46:29;11.85;;;6.10;;
36355;SDS011;22384;54.302;18.596;2023-03-01T01:49:00;16.40;;;5.88;;
36355;SDS011;22384;54.302;18.596;2023-03-01T01:51:30;14.25;;;5.80;;
36355;SDS011;22384;54.302;18.596;2023-03-01T01:54:08;15.02;;;6.45;;
36355;SDS011;22384;54.302;18.596;2023-03-01T01:56:36;15.45;;;6.45;;
36355;SDS011;22384;54.302;18.596;2023-03-01T01:59:04;14.25;;;5.70;;
36355;SDS011;22384;54.302;18.596;2023-03-01T02:01:30;16.85;;;6.55;;
36355;SDS011;22384;54.302;18.596;2023-03-01T02:03:56;13.95;;;6.43;;
36355;SDS011;22384;54.302;18.596;2023-03-01T02:06:26;20.00;;;6.32;;
36355;SDS011;22384;54.302;18.596;2023-03-01T02:09:00;13.07;;;5.80;;
36355;SDS011;22384;54.302;18.596;2023-03-01T02:11:30;14.98;;;6.38;;
36355;SDS011;22384;54.302;18.596;2023-03-01T02:13:59;13.65;;;6.35;;
36355;SDS011;22384;54.302;18.596;2023-03-01T02:16:25;16.13;;;7.03;;
36355;SDS011;22384;54.302;18.596;2023-03-01T02:18:51;13.43;;;6.25;;
36355;SDS011;22384;54.302;18.596;2023-03-01T02:24:06;21.60;;;6.70;;
36355;SDS011;22384;54.302;18.596;2023-03-01T02:26:39;18.88;;;6.75;;
36355;SDS011;22384;54.302;18.596;2023-03-01T02:29:06;15.82;;;8.30;;
36355;SDS011;22384;54.302;18.596;2023-03-01T02:31:33;13.93;;;7.28;;
36355;SDS011;22384;54.302;18.596;2023-03-01T02:34:26;16.00;;;9.00;;
36355;SDS011;22384;54.302;18.596;2023-03-01T02:37:13;13.63;;;7.80;;
36355;SDS011;22384;54.302;18.596;2023-03-01T02:39:46;22.23;;;8.25;;
36355;SDS011;22384;54.302;18.596;2023-03-01T02:42:21;18.20;;;9.13;;
36355;SDS011;22384;54.302;18.596;2023-03-01T02:44:49;19.55;;;8.40;;
36355;SDS011;22384;54.302;18.596;2023-03-01T02:47:15;21.25;;;9.05;;
36355;SDS011;22384;54.302;18.596;2023-03-01T02:49:43;16.52;;;8.98;;
36355;SDS011;22384;54.302;18.596;2023-03-01T02:52:16;22.15;;;9.45;;
36355;SDS011;22384;54.302;18.596;2023-03-01T02:54:58;20.85;;;8.98;;
36355;SDS011;22384;54.302;18.596;2023-03-01T02:57:28;19.92;;;9.23;;
36355;SDS011;22384;54.302;18.596;2023-03-01T02:59:56;23.10;;;10.63;;
36355;SDS011;22384;54.302;18.596;2023-03-01T03:02:27;21.33;;;10.05;;
36355;SDS011;22384;54.302;18.596;2023-03-01T03:05:13;21.85;;;9.75;;
36355;SDS011;22384;54.302;18.596;2023-03-01T03:07:41;19.10;;;9.60;;
36355;SDS011;22384;54.302;18.596;2023-03-01T03:10:09;23.98;;;9.40;;
36355;SDS011;22384;54.302;18.596;2023-03-01T03:12:36;25.38;;;10.48;;
36355;SDS011;22384;54.302;18.596;2023-03-01T03:15:03;24.98;;;10.43;;
36355;SDS011;22384;54.302;18.596;2023-03-01T03:17:35;20.48;;;10.45;;
36355;SDS011;22384;54.302;18.596;2023-03-01T03:20:02;19.38;;;9.05;;
36355;SDS011;22384;54.302;18.596;2023-03-01T03:22:31;22.50;;;10.82;;
36355;SDS011;22384;54.302;18.596;2023-03-01T03:25:00;21.38;;;10.55;;
36355;SDS011;22384;54.302;18.596;2023-03-01T03:27:27;19.35;;;10.38;;
36355;SDS011;22384;54.302;18.596;2023-03-01T03:29:55;29.50;;;11.75;;
36355;SDS011;22384;54.302;18.596;2023-03-01T03:32:22;19.92;;;10.77;;
36355;SDS011;22384;54.302;18.596;2023-03-01T03:34:48;19.23;;;9.32;;
36355;SDS011;22384;54.302;18.596;2023-03-01T03:37:14;20.88;;;10.77;;
36355;SDS011;22384;54.302;18.596;2023-03-01T03:40:01;24.85;;;9.52;;
36355;SDS011;22384;54.302;18.596;2023-03-01T03:42:28;27.42;;;11.75;;
36355;SDS011;22384;54.302;18.596;2023-03-01T03:44:54;24.65;;;10.20;;
36355;SDS011;22384;54.302;18.596;2023-03-01T03:47:20;27.55;;;12.48;;
36355;SDS011;22384;54.302;18.596;2023-03-01T03:49:46;22.38;;;10.75;;
36355;SDS011;22384;54.302;18.596;2023-03-01T03:52:13;24.48;;;10.55;;
36355;SDS011;22384;54.302;18.596;2023-03-01T03:54:40;23.08;;;11.00;;
36355;SDS011;22384;54.302;18.596;2023-03-01T03:57:06;26.90;;;11.63;;
36355;SDS011;22384;54.302;18.596;2023-03-01T03:59:32;27.45;;;10.68;;
36355;SDS011;22384;54.302;18.596;2023-03-01T04:01:59;29.08;;;12.05;;
36355;SDS011;22384;54.302;18.596;2023-03-01T04:04:25;21.20;;;10.73;;
36355;SDS011;22384;54.302;18.596;2023-03-01T04:06:51;24.45;;;11.10;;
36355;SDS011;22384;54.302;18.596;2023-03-01T04:09:19;23.17;;;10.90;;
36355;SDS011;22384;54.302;18.596;2023-03-01T04:11:47;26.10;;;12.57;;
36355;SDS011;22384;54.302;18.596;2023-03-01T04:14:15;26.58;;;11.00;;
36355;SDS011;22384;54.302;18.596;2023-03-01T04:16:42;22.25;;;11.23;;
36355;SDS011;22384;54.302;18.596;2023-03-01T04:19:08;26.50;;;12.30;;
36355;SDS011;22384;54.302;18.596;2023-03-01T04:21:34;23.92;;;11.52;;
36355;SDS011;22384;54.302;18.596;2023-03-01T04:24:01;29.63;;;12.30;;
36355;SDS011;22384;54.302;18.596;2023-03-01T04:26:28;21.50;;;11.80;;
36355;SDS011;22384;54.302;18.596;2023-03-01T04:28:55;31.05;;;11.75;;
36355;SDS011;22384;54.302;18.596;2023-03-01T04:31:23;23.70;;;12.30;;
36355;SDS011;22384;54.302;18.596;2023-03-01T04:36:16;25.25;;;12.13;;
36355;SDS011;22384;54.302;18.596;2023-03-01T04:38:43;32.60;;;13.00;;
36355;SDS011;22384;54.302;18.596;2023-03-01T04:41:13;28.42;;;12.43;;
36355;SDS011;22384;54.302;18.596;2023-03-01T04:43:39;26.58;;;12.93;;
36355;SDS011;22384;54.302;18.596;2023-03-01T04:46:07;32.83;;;14.95;;
36355;SDS011;22384;54.302;18.596;2023-03-01T04:48:37;23.88;;;12.30;;
36355;SDS011;22384;54.302;18.596;2023-03-01T04:51:03;24.83;;;12.35;;
36355;SDS011;22384;54.302;18.596;2023-03-01T04:53:30;28.80;;;13.38;;
36355;SDS011;22384;54.302;18.596;2023-03-01T04:55:57;29.67;;;13.25;;
36355;SDS011;22384;54.302;18.596;2023-03-01T04:58:25;28.60;;;13.30;;
36355;SDS011;22384;54.302;18.596;2023-03-01T05:00:52;28.35;;;12.32;;
36355;SDS011;22384;54.302;18.596;2023-03-01T05:03:19;28.17;;;12.80;;
36355;SDS011;22384;54.302;18.596;2023-03-01T05:05:47;27.30;;;13.20;;
36355;SDS011;22384;54.302;18.596;2023-03-01T05:08:16;29.05;;;12.77;;
36355;SDS011;22384;54.302;18.596;2023-03-01T05:10:46;30.80;;;13.25;;
36355;SDS011;22384;54.302;18.596;2023-03-01T05:13:13;29.52;;;13.57;;
36355;SDS011;22384;54.302;18.596;2023-03-01T05:15:53;33.28;;;13.18;;
36355;SDS011;22384;54.302;18.596;2023-03-01T05:18:19;28.67;;;13.07;;
36355;SDS011;22384;54.302;18.596;2023-03-01T05:20:45;31.85;;;13.80;;
36355;SDS011;22384;54.302;18.596;2023-03-01T05:23:13;32.67;;;13.70;;
36355;SDS011;22384;54.302;18.596;2023-03-01T05:25:39;26.67;;;12.70;;
36355;SDS011;22384;54.302;18.596;2023-03-01T05:28:06;30.33;;;14.00;;
36355;SDS011;22384;54.302;18.596;2023-03-01T05:30:34;29.52;;;13.20;;
36355;SDS011;22384;54.302;18.596;2023-03-01T05:33:01;32.13;;;13.15;;
36355;SDS011;22384;54.302;18.596;2023-03-01T05:35:33;34.72;;;14.68;;
36355;SDS011;22384;54.302;18.596;2023-03-01T05:37:59;31.63;;;13.98;;
36355;SDS011;22384;54.302;18.596;2023-03-01T05:40:26;30.40;;;12.63;;
36355;SDS011;22384;54.302;18.596;2023-03-01T05:42:55;31.63;;;12.82;;
36355;SDS011;22384;54.302;18.596;2023-03-01T05:45:23;29.70;;;12.82;;
36355;SDS011;22384;54.302;18.596;2023-03-01T05:47:50;31.45;;;11.82;;
36355;SDS011;22384;54.302;18.596;2023-03-01T05:50:20;27.63;;;13.32;;
36355;SDS011;22384;54.302;18.596;2023-03-01T05:52:47;32.60;;;13.77;;
36355;SDS011;22384;54.302;18.596;2023-03-01T05:55:18;27.33;;;13.02;;
36355;SDS011;22384;54.302;18.596;2023-03-01T05:57:46;29.95;;;13.10;;
36355;SDS011;22384;54.302;18.596;2023-03-01T06:00:13;30.63;;;13.35;;
36355;SDS011;22384;54.302;18.596;2023-03-01T06:02:39;29.20;;;12.70;;
36355;SDS011;22384;54.302;18.596;2023-03-01T06:05:06;35.08;;;13.75;;
36355;SDS011;22384;54.302;18.596;2023-03-01T06:07:33;30.85;;;14.68;;
36355;SDS011;22384;54.302;18.596;2023-03-01T06:10:01;32.05;;;12.98;;
36355;SDS011;22384;54.302;18.596;2023-03-01T06:12:30;36.28;;;14.30;;
36355;SDS011;22384;54.302;18.596;2023-03-01T06:14:57;31.17;;;14.25;;
36355;SDS011;22384;54.302;18.596;2023-03-01T06:17:23;30.90;;;13.55;;
36355;SDS011;22384;54.302;18.596;2023-03-01T06:19:49;35.90;;;14.63;;
36355;SDS011;22384;54.302;18.596;2023-03-01T06:22:16;35.92;;;15.18;;
36355;SDS011;22384;54.302;18.596;2023-03-01T06:24:42;32.90;;;13.90;;
36355;SDS011;22384;54.302;18.596;2023-03-01T06:27:08;30.08;;;14.05;;
36355;SDS011;22384;54.302;18.596;2023-03-01T06:29:34;41.28;;;14.65;;
36355;SDS011;22384;54.302;18.596;2023-03-01T06:32:01;29.30;;;13.85;;
36355;SDS011;22384;54.302;18.596;2023-03-01T06:34:28;31.38;;;14.13;;
36355;SDS011;22384;54.302;18.596;2023-03-01T06:36:54;34.08;;;14.73;;
36355;SDS011;22384;54.302;18.596;2023-03-01T06:39:21;34.63;;;15.00;;
36355;SDS011;22384;54.302;18.596;2023-03-01T06:41:47;27.85;;;12.45;;
36355;SDS011;22384;54.302;18.596;2023-03-01T06:44:14;34.83;;;14.32;;
36355;SDS011;22384;54.302;18.596;2023-03-01T06:46:40;27.05;;;13.00;;
36355;SDS011;22384;54.302;18.596;2023-03-01T06:49:07;29.92;;;14.40;;
36355;SDS011;22384;54.302;18.596;2023-03-01T06:51:36;32.03;;;12.32;;
36355;SDS011;22384;54.302;18.596;2023-03-01T06:54:03;28.45;;;13.40;;
36355;SDS011;22384;54.302;18.596;2023-03-01T06:56:30;34.05;;;14.27;;
36355;SDS011;22384;54.302;18.596;2023-03-01T06:58:56;28.88;;;14.30;;
36355;SDS011;22384;54.302;18.596;2023-03-01T07:01:23;35.72;;;13.48;;
36355;SDS011;22384;54.302;18.596;2023-03-01T07:03:49;31.48;;;12.82;;
36355;SDS011;22384;54.302;18.596;2023-03-01T07:06:15;30.55;;;14.55;;
36355;SDS011;22384;54.302;18.596;2023-03-01T07:08:42;27.40;;;13.15;;
36355;SDS011;22384;54.302;18.596;2023-03-01T07:11:08;24.63;;;11.77;;
36355;SDS011;22384;54.302;18.596;2023-03-01T07:13:35;27.70;;;12.55;;
36355;SDS011;22384;54.302;18.596;2023-03-01T07:16:01;32.33;;;12.52;;
36355;SDS011;22384;54.302;18.596;2023-03-01T07:18:27;25.08;;;11.23;;
36355;SDS011;22384;54.302;18.596;2023-03-01T07:20:54;23.25;;;11.75;;
36355;SDS011;22384;54.302;18.596;2023-03-01T07:23:23;26.17;;;10.95;;
36355;SDS011;22384;54.302;18.596;2023-03-01T07:26:10;22.90;;;10.88;;
36355;SDS011;22384;54.302;18.596;2023-03-01T07:28:36;22.63;;;10.27;;
36355;SDS011;22384;54.302;18.596;2023-03-01T07:31:05;25.35;;;10.45;;
36355;SDS011;22384;54.302;18.596;2023-03-01T07:33:31;21.13;;;10.07;;
36355;SDS011;22384;54.302;18.596;2023-03-01T07:36:01;28.08;;;10.90;;
36355;SDS011;22384;54.302;18.596;2023-03-01T07:38:28;23.00;;;10.80;;
36355;SDS011;22384;54.302;18.596;2023-03-01T07:40:58;21.48;;;10.38;;
36355;SDS011;22384;54.302;18.596;2023-03-01T07:43:26;25.85;;;10.45;;
36355;SDS011;22384;54.302;18.596;2023-03-01T07:45:52;26.15;;;11.23;;
36355;SDS011;22384;54.302;18.596;2023-03-01T07:48:18;20.38;;;9.45;;
36355;SDS011;22384;54.302;18.596;2023-03-01T07:50:46;23.00;;;10.60;;
36355;SDS011;22384;54.302;18.596;2023-03-01T07:53:12;24.48;;;10.70;;
36355;SDS011;22384;54.302;18.596;2023-03-01T07:55:40;23.50;;;10.63;;
36355;SDS011;22384;54.302;18.596;2023-03-01T07:58:06;22.13;;;11.73;;
36355;SDS011;22384;54.302;18.596;2023-03-01T08:00:32;23.88;;;10.57;;
36355;SDS011;22384;54.302;18.596;2023-03-01T08:02:59;21.67;;;10.13;;
36355;SDS011;22384;54.302;18.596;2023-03-01T08:05:26;24.48;;;11.02;;
36355;SDS011;22384;54.302;18.596;2023-03-01T08:07:54;22.23;;;11.27;;
36355;SDS011;22384;54.302;18.596;2023-03-01T08:10:21;22.10;;;10.95;;
36355;SDS011;22384;54.302;18.596;2023-03-01T08:12:48;23.42;;;10.88;;
36355;SDS011;22384;54.302;18.596;2023-03-01T08:15:16;25.40;;;10.77;;
36355;SDS011;22384;54.302;18.596;2023-03-01T08:17:44;25.35;;;11.63;;
36355;SDS011;22384;54.302;18.596;2023-03-01T08:20:11;23.42;;;11.98;;
36355;SDS011;22384;54.302;18.596;2023-03-01T08:22:38;22.48;;;10.90;;
36355;SDS011;22384;54.302;18.596;2023-03-01T08:25:04;21.23;;;10.50;;
36355;SDS011;22384;54.302;18.596;2023-03-01T08:27:32;22.20;;;11.65;;
36355;SDS011;22384;54.302;18.596;2023-03-01T08:29:58;23.20;;;10.55;;
36355;SDS011;22384;54.302;18.596;2023-03-01T08:32:24;19.77;;;9.98;;
36355;SDS011;22384;54.302;18.596;2023-03-01T08:34:50;23.80;;;10.98;;
36355;SDS011;22384;54.302;18.596;2023-03-01T08:37:17;22.05;;;10.15;;
36355;SDS011;22384;54.302;18.596;2023-03-01T08:39:43;20.70;;;10.23;;
36355;SDS011;22384;54.302;18.596;2023-03-01T08:42:09;22.15;;;10.48;;
36355;SDS011;22384;54.302;18.596;2023-03-01T08:44:35;24.23;;;10.68;;
36355;SDS011;22384;54.302;18.596;2023-03-01T08:47:03;18.65;;;9.50;;
36355;SDS011;22384;54.302;18.596;2023-03-01T08:49:30;26.42;;;11.48;;
36355;SDS011;22384;54.302;18.596;2023-03-01T08:51:57;20.65;;;10.13;;
36355;SDS011;22384;54.302;18.596;2023-03-01T08:54:25;25.60;;;10.48;;
36355;SDS011;22384;54.302;18.596;2023-03-01T08:56:51;21.77;;;10.73;;
36355;SDS011;22384;54.302;18.596;2023-03-01T08:59:17;22.88;;;10.55;;
36355;SDS011;22384;54.302;18.596;2023-03-01T09:01:44;22.42;;;9.70;;
36355;SDS011;22384;54.302;18.596;2023-03-01T09:04:12;23.40;;;9.68;;
36355;SDS011;22384;54.302;18.596;2023-03-01T09:06:38;16.98;;;8.73;;
36355;SDS011;22384;54.302;18.596;2023-03-01T09:09:07;20.10;;;9.63;;
36355;SDS011;22384;54.302;18.596;2023-03-01T09:11:41;17.25;;;8.90;;
36355;SDS011;22384;54.302;18.596;2023-03-01T09:14:08;20.42;;;9.73;;
36355;SDS011;22384;54.302;18.596;2023-03-01T09:16:34;18.48;;;9.27;;
36355;SDS011;22384;54.302;18.596;2023-03-01T09:19:01;22.70;;;10.25;;
36355;SDS011;22384;54.302;18.596;2023-03-01T09:21:28;18.27;;;9.80;;
36355;SDS011;22384;54.302;18.596;2023-03-01T09:23:55;18.17;;;9.32;;
36355;SDS011;22384;54.302;18.596;2023-03-01T09:26:21;20.05;;;9.57;;
36355;SDS011;22384;54.302;18.596;2023-03-01T09:28:49;21.80;;;11.27;;
36355;SDS011;22384;54.302;18.596;2023-03-01T09:31:15;17.63;;;9.27;;
36355;SDS011;22384;54.302;18.596;2023-03-01T09:33:42;20.30;;;10.25;;
36355;SDS011;22384;54.302;18.596;2023-03-01T09:36:12;20.95;;;9.70;;
36355;SDS011;22384;54.302;18.596;2023-03-01T09:38:38;20.58;;;10.13;;
36355;SDS011;22384;54.302;18.596;2023-03-01T09:41:18;20.15;;;9.13;;
36355;SDS011;22384;54.302;18.596;2023-03-01T09:46:40;21.10;;;9.82;;
36355;SDS011;22384;54.302;18.596;2023-03-01T09:49:26;19.15;;;9.75;;
36355;SDS011;22384;54.302;18.596;2023-03-01T09:55:00;23.85;;;9.57;;
36355;SDS011;22384;54.302;18.596;2023-03-01T10:10:50;17.88;;;9.15;;
36355;SDS011;22384;54.302;18.596;2023-03-01T10:13:36;17.05;;;7.38;;
36355;SDS011;22384;54.302;18.596;2023-03-01T10:16:11;20.13;;;8.07;;
36355;SDS011;22384;54.302;18.596;2023-03-01T10:18:40;17.48;;;8.95;;
36355;SDS011;22384;54.302;18.596;2023-03-01T10:21:14;13.65;;;7.35;;
36355;SDS011;22384;54.302;18.596;2023-03-01T10:23:41;14.77;;;7.70;;
36355;SDS011;22384;54.302;18.596;2023-03-01T10:34:28;20.70;;;9.45;;
36355;SDS011;22384;54.302;18.596;2023-03-01T10:37:01;17.77;;;9.85;;
36355;SDS011;22384;54.302;18.596;2023-03-01T10:39:27;16.38;;;9.25;;
36355;SDS011;22384;54.302;18.596;2023-03-01T10:41:57;17.00;;;9.07;;
36355;SDS011;22384;54.302;18.596;2023-03-01T10:47:16;21.38;;;10.40;;
36355;SDS011;22384;54.302;18.596;2023-03-01T10:49:51;18.55;;;9.27;;
36355;SDS011;22384;54.302;18.596;2023-03-01T10:52:19;17.30;;;8.98;;
36355;SDS011;22384;54.302;18.596;2023-03-01T10:54:52;19.83;;;9.93;;
36355;SDS011;22384;54.302;18.596;2023-03-01T10:57:27;18.30;;;9.00;;
36355;SDS011;22384;54.302;18.596;2023-03-01T11:03:10;16.17;;;7.78;;
36355;SDS011;22384;54.302;18.596;2023-03-01T11:05:37;15.65;;;8.70;;
36355;SDS011;22384;54.302;18.596;2023-03-01T11:08:26;16.60;;;9.02;;
36355;SDS011;22384;54.302;18.596;2023-03-01T11:11:03;17.20;;;8.93;;
36355;SDS011;22384;54.302;18.596;2023-03-01T11:13:30;18.80;;;10.32;;
36355;SDS011;22384;54.302;18.596;2023-03-01T11:15:59;13.60;;;7.80;;
36355;SDS011;22384;54.302;18.596;2023-03-01T11:18:26;14.48;;;7.97;;
36355;SDS011;22384;54.302;18.596;2023-03-01T11:20:55;19.27;;;9.35;;
36355;SDS011;22384;54.302;18.596;2023-03-01T11:23:22;19.67;;;8.90;;
36355;SDS011;22384;54.302;18.596;2023-03-01T11:25:53;16.00;;;8.95;;
36355;SDS011;22384;54.302;18.596;2023-03-01T11:28:20;15.70;;;8.73;;
36355;SDS011;22384;54.302;18.596;2023-03-01T11:35:53;18.33;;;9.10;;
36355;SDS011;22384;54.302;18.596;2023-03-01T11:38:28;16.98;;;8.88;;
36355;SDS011;22384;54.302;18.596;2023-03-01T11:41:00;15.25;;;8.68;;
36355;SDS011;22384;54.302;18.596;2023-03-01T11:54:06;17.00;;;9.65;;
36355;SDS011;22384;54.302;18.596;2023-03-01T11:56:38;17.45;;;9.63;;
36355;SDS011;22384;54.302;18.596;2023-03-01T12:09:18;18.40;;;9.70;;
36355;SDS011;22384;54.302;18.596;2023-03-01T12:19:33;16.25;;;10.55;;
36355;SDS011;22384;54.302;18.596;2023-03-01T12:27:12;16.25;;;9.35;;
36355;SDS011;22384;54.302;18.596;2023-03-01T12:43:02;17.90;;;8.93;;
36355;SDS011;22384;54.302;18.596;2023-03-01T12:48:15;15.65;;;8.77;;
36355;SDS011;22384;54.302;18.596;2023-03-01T12:50:46;17.38;;;9.88;;
36355;SDS011;22384;54.302;18.596;2023-03-01T12:53:22;17.52;;;9.75;;
36355;SDS011;22384;54.302;18.596;2023-03-01T12:55:49;19.65;;;10.90;;
36355;SDS011;22384;54.302;18.596;2023-03-01T13:06:17;17.55;;;10.10;;
36355;SDS011;22384;54.302;18.596;2023-03-01T13:11:23;21.15;;;10.25;;
36355;SDS011;22384;54.302;18.596;2023-03-01T13:13:49;19.65;;;10.77;;
36355;SDS011;22384;54.302;18.596;2023-03-01T13:16:38;19.40;;;10.43;;
36355;SDS011;22384;54.302;18.596;2023-03-01T13:19:17;19.02;;;10.30;;
36355;SDS011;22384;54.302;18.596;2023-03-01T13:21:44;19.92;;;10.75;;
36355;SDS011;22384;54.302;18.596;2023-03-01T13:29:50;14.43;;;9.50;;
36355;SDS011;22384;54.302;18.596;2023-03-01T13:32:23;20.08;;;9.60;;
36355;SDS011;22384;54.302;18.596;2023-03-01T13:34:54;16.05;;;9.77;;
36355;SDS011;22384;54.302;18.596;2023-03-01T13:37:21;18.88;;;10.23;;
36355;SDS011;22384;54.302;18.596;2023-03-01T13:39:48;20.75;;;11.13;;
36355;SDS011;22384;54.302;18.596;2023-03-01T13:44:53;19.73;;;10.88;;
36355;SDS011;22384;54.302;18.596;2023-03-01T13:47:20;17.00;;;10.63;;
36355;SDS011;22384;54.302;18.596;2023-03-01T13:49:51;19.80;;;10.57;;
36355;SDS011;22384;54.302;18.596;2023-03-01T13:52:30;21.23;;;10.45;;
36355;SDS011;22384;54.302;18.596;2023-03-01T13:54:58;20.02;;;10.20;;
36355;SDS011;22384;54.302;18.596;2023-03-01T13:57:29;18.35;;;9.82;;
36355;SDS011;22384;54.302;18.596;2023-03-01T13:59:57;18.40;;;10.05;;
36355;SDS011;22384;54.302;18.596;2023-03-01T14:02:23;16.92;;;8.77;;
36355;SDS011;22384;54.302;18.596;2023-03-01T14:04:56;18.55;;;10.13;;
36355;SDS011;22384;54.302;18.596;2023-03-01T14:07:22;19.73;;;9.80;;
36355;SDS011;22384;54.302;18.596;2023-03-01T14:09:54;18.98;;;9.48;;
36355;SDS011;22384;54.302;18.596;2023-03-01T14:20:27;17.83;;;9.50;;
36355;SDS011;22384;54.302;18.596;2023-03-01T14:22:57;18.88;;;9.90;;
36355;SDS011;22384;54.302;18.596;2023-03-01T14:25:32;17.17;;;9.75;;
36355;SDS011;22384;54.302;18.596;2023-03-01T14:28:04;19.33;;;9.20;;
36355;SDS011;22384;54.302;18.596;2023-03-01T14:30:34;14.90;;;9.35;;
36355;SDS011;22384;54.302;18.596;2023-03-01T14:33:03;19.80;;;9.40;;
36355;SDS011;22384;54.302;18.596;2023-03-01T14:35:32;18.05;;;9.18;;
36355;SDS011;22384;54.302;18.596;2023-03-01T14:37:59;16.80;;;8.85;;
36355;SDS011;22384;54.302;18.596;2023-03-01T14:40:29;17.58;;;9.52;;
36355;SDS011;22384;54.302;18.596;2023-03-01T14:42:56;25.75;;;9.88;;
36355;SDS011;22384;54.302;18.596;2023-03-01T14:45:24;14.18;;;8.27;;
36355;SDS011;22384;54.302;18.596;2023-03-01T14:47:51;19.75;;;8.80;;
36355;SDS011;22384;54.302;18.596;2023-03-01T14:50:22;15.38;;;8.85;;
36355;SDS011;22384;54.302;18.596;2023-03-01T14:52:50;17.70;;;8.95;;
36355;SDS011;22384;54.302;18.596;2023-03-01T14:55:35;15.10;;;9.65;;
36355;SDS011;22384;54.302;18.596;2023-03-01T14:58:08;18.65;;;9.48;;
36355;SDS011;22384;54.302;18.596;2023-03-01T15:00:35;17.27;;;8.57;;
36355;SDS011;22384;54.302;18.596;2023-03-01T15:03:24;17.30;;;9.45;;
36355;SDS011;22384;54.302;18.596;2023-03-01T15:05:48;14.00;;;9.20;;
36355;SDS011;22384;54.302;18.596;2023-03-01T15:08:21;17.33;;;8.88;;
36355;SDS011;22384;54.302;18.596;2023-03-01T15:10:56;23.90;;;9.98;;
36355;SDS011;22384;54.302;18.596;2023-03-01T15:13:24;21.98;;;8.68;;
36355;SDS011;22384;54.302;18.596;2023-03-01T15:15:51;15.93;;;9.70;;
36355;SDS011;22384;54.302;18.596;2023-03-01T15:18:21;18.73;;;9.10;;
36355;SDS011;22384;54.302;18.596;2023-03-01T15:20:48;19.05;;;9.57;;
36355;SDS011;22384;54.302;18.596;2023-03-01T15:23:19;26.17;;;10.23;;
36355;SDS011;22384;54.302;18.596;2023-03-01T15:25:47;22.02;;;9.68;;
36355;SDS011;22384;54.302;18.596;2023-03-01T15:28:21;16.48;;;8.80;;
36355;SDS011;22384;54.302;18.596;2023-03-01T15:30:52;18.13;;;9.57;;
36355;SDS011;22384;54.302;18.596;2023-03-01T15:33:20;14.82;;;8.18;;
36355;SDS011;22384;54.302;18.596;2023-03-01T15:35:53;15.63;;;8.35;;
36355;SDS011;22384;54.302;18.596;2023-03-01T15:38:31;18.02;;;8.45;;
36355;SDS011;22384;54.302;18.596;2023-03-01T15:41:02;15.18;;;7.93;;
36355;SDS011;22384;54.302;18.596;2023-03-01T15:43:38;12.70;;;7.47;;
36355;SDS011;22384;54.302;18.596;2023-03-01T15:46:05;12.00;;;7.70;;
36355;SDS011;22384;54.302;18.596;2023-03-01T15:48:31;15.43;;;8.57;;
36355;SDS011;22384;54.302;18.596;2023-03-01T15:50:57;17.95;;;8.52;;
36355;SDS011;22384;54.302;18.596;2023-03-01T15:53:24;14.88;;;9.10;;
36355;SDS011;22384;54.302;18.596;2023-03-01T15:55:52;20.02;;;9.27;;
36355;SDS011;22384;54.302;18.596;2023-03-01T15:58:22;16.23;;;9.25;;
36355;SDS011;22384;54.302;18.596;2023-03-01T16:01:01;23.73;;;9.45;;
36355;SDS011;22384;54.302;18.596;2023-03-01T16:03:29;19.73;;;9.23;;
36355;SDS011;22384;54.302;18.596;2023-03-01T16:05:59;17.75;;;10.00;;
36355;SDS011;22384;54.302;18.596;2023-03-01T16:08:35;18.42;;;10.30;;
36355;SDS011;22384;54.302;18.596;2023-03-01T16:11:01;20.10;;;10.15;;
36355;SDS011;22384;54.302;18.596;2023-03-01T16:13:36;21.35;;;11.13;;
36355;SDS011;22384;54.302;18.596;2023-03-01T16:16:04;19.15;;;10.50;;
36355;SDS011;22384;54.302;18.596;2023-03-01T16:18:32;27.15;;;12.35;;
36355;SDS011;22384;54.302;18.596;2023-03-01T16:20:58;23.55;;;12.50;;
36355;SDS011;22384;54.302;18.596;2023-03-01T16:23:25;30.38;;;13.68;;
36355;SDS011;22384;54.302;18.596;2023-03-01T16:26:00;30.05;;;14.57;;
36355;SDS011;22384;54.302;18.596;2023-03-01T16:28:30;36.47;;;16.40;;
36355;SDS011;22384;54.302;18.596;2023-03-01T16:31:02;40.10;;;17.38;;